sensor_id;sensor_type;location;lat;lon;timestamp;pressure;altitude;pressure_sealevel;temperature;humidity
52469;BME280;38381;53.688;10.776;2023-07-28T00:04:52;99840.88;;;16.26;94.58
52469;BME280;38381;53.688;10.776;2023-07-28T00:09:52;99841.69;;;16.28;94.64
52469;BME280;38381;53.688;10.776;2023-07-28T00:14:53;99831.22;;;16.28;94.53
52469;BME280;38381;53.688;10.776;2023-07-28T00:19:53;99825.06;;;16.31;94.71
52469;BME280;38381;53.688;10.776;2023-07-28T00:24:53;99824.19;;;16.30;95.22
52469;BME280;38381;53.688;10.776;2023-07-28T00:29:54;99826.81;;;16.30;94.80
52469;BME280;38381;53.688;10.776;2023-07-28T00:34:54;99835.56;;;16.29;95.34
52469;BME280;38381;53.688;10.776;2023-07-28T00:39:55;99831.16;;;16.31;95.02
52469;BME280;38381;53.688;10.776;2023-07-28T00:44:55;99830.19;;;16.34;95.21
52469;BME280;38381;53.688;10.776;2023-07-28T00:49:55;99831.09;;;16.33;95.38
52469;BME280;38381;53.688;10.776;2023-07-28T00:54:56;99837.16;;;16.35;95.49
52469;BME280;38381;53.688;10.776;2023-07-28T00:59:57;99835.41;;;16.34;95.85
52469;BME280;38381;53.688;10.776;2023-07-28T01:04:58;99827.59;;;16.32;95.57
52469;BME280;38381;53.688;10.776;2023-07-28T01:10:02;99821.44;;;16.35;95.56
52469;BME280;38381;53.688;10.776;2023-07-28T01:15:06;99820.53;;;16.36;95.52
52469;BME280;38381;53.688;10.776;2023-07-28T01:20:07;99810.09;;;16.34;95.51
52469;BME280;38381;53.688;10.776;2023-07-28T01:26:17;99802.22;;;16.36;95.32
52469;BME280;38381;53.688;10.776;2023-07-28T01:30:46;99802.22;;;16.36;95.42
52469;BME280;38381;53.688;10.776;2023-07-28T01:35:47;99797.91;;;16.35;95.35
52469;BME280;38381;53.688;10.776;2023-07-28T01:40:48;99810.06;;;16.36;95.50
52469;BME280;38381;53.688;10.776;2023-07-28T01:45:48;99807.44;;;16.36;95.44
52469;BME280;38381;53.688;10.776;2023-07-28T01:50:49;99797.91;;;16.35;95.37
52469;BME280;38381;53.688;10.776;2023-07-28T01:55:49;99804.88;;;16.34;95.69
52469;BME280;38381;53.688;10.776;2023-07-28T02:00:50;99807.44;;;16.36;95.46
52469;BME280;38381;53.688;10.776;2023-07-28T02:05:50;99802.22;;;16.36;95.76
52469;BME280;38381;53.688;10.776;2023-07-28T02:10:53;99803.97;;;16.35;95.86
52469;BME280;38381;53.688;10.776;2023-07-28T02:15:54;99811.78;;;16.37;95.72
52469;BME280;38381;53.688;10.776;2023-07-28T02:20:54;99814.28;;;16.40;95.67
52469;BME280;38381;53.688;10.776;2023-07-28T02:25:54;99814.28;;;16.40;95.75
52469;BME280;38381;53.688;10.776;2023-07-28T02:30:55;99812.63;;;16.37;95.52
52469;BME280;38381;53.688;10.776;2023-07-28T02:35:56;99811.72;;;16.38;95.85
52469;BME280;38381;53.688;10.776;2023-07-28T02:40:56;99814.31;;;16.38;95.71
52469;BME280;38381;53.688;10.776;2023-07-28T02:45:57;99815.25;;;16.37;95.44
52469;BME280;38381;53.688;10.776;2023-07-28T02:50:58;99825.75;;;16.36;95.99
52469;BME280;38381;53.688;10.776;2023-07-28T02:55:58;99829.41;;;16.30;95.58
52469;BME280;38381;53.688;10.776;2023-07-28T03:00:59;99831.00;;;16.36;95.65
52469;BME280;38381;53.688;10.776;2023-07-28T03:05:59;99838.06;;;16.32;96.01
52469;BME280;38381;53.688;10.776;2023-07-28T03:11:00;99846.00;;;16.31;96.42
52469;BME280;38381;53.688;10.776;2023-07-28T03:16:02;99853.03;;;16.28;96.28
52469;BME280;38381;53.688;10.776;2023-07-28T03:21:03;99850.44;;;16.28;96.22
52469;BME280;38381;53.688;10.776;2023-07-28T03:26:04;99856.50;;;16.29;96.05
52469;BME280;38381;53.688;10.776;2023-07-28T03:31:04;99865.41;;;16.23;96.47
52469;BME280;38381;53.688;10.776;2023-07-28T03:36:04;99875.78;;;16.26;96.03
52469;BME280;38381;53.688;10.776;2023-07-28T03:41:05;99875.16;;;16.18;97.00
52469;BME280;38381;53.688;10.776;2023-07-28T03:46:07;99875.97;;;16.20;97.19
52469;BME280;38381;53.688;10.776;2023-07-28T03:51:07;99874.09;;;16.24;97.00
52469;BME280;38381;53.688;10.776;2023-07-28T03:56:08;99871.47;;;16.24;97.00
52469;BME280;38381;53.688;10.776;2023-07-28T04:01:08;99862.69;;;16.26;96.72
52469;BME280;38381;53.688;10.776;2023-07-28T04:06:10;99867.97;;;16.25;96.50
52469;BME280;38381;53.688;10.776;2023-07-28T04:11:12;99862.78;;;16.23;96.81
52469;BME280;38381;53.688;10.776;2023-07-28T04:16:12;99866.34;;;16.21;96.33
52469;BME280;38381;53.688;10.776;2023-07-28T04:21:12;99873.06;;;16.29;95.67
52469;BME280;38381;53.688;10.776;2023-07-28T04:26:13;99877.31;;;16.32;96.31
52469;BME280;38381;53.688;10.776;2023-07-28T04:31:13;99880.88;;;16.31;96.55
52469;BME280;38381;53.688;10.776;2023-07-28T04:36:14;99890.31;;;16.35;96.38
52469;BME280;38381;53.688;10.776;2023-07-28T04:41:14;99886.88;;;16.35;96.55
52469;BME280;38381;53.688;10.776;2023-07-28T04:46:14;99891.09;;;16.39;96.50
52469;BME280;38381;53.688;10.776;2023-07-28T04:51:15;99898.78;;;16.43;95.81
52469;BME280;38381;53.688;10.776;2023-07-28T04:56:15;99898.22;;;16.34;96.91
52469;BME280;38381;53.688;10.776;2023-07-28T05:01:16;99898.03;;;16.40;96.46
52469;BME280;38381;53.688;10.776;2023-07-28T05:06:16;99908.09;;;16.52;96.00
52469;BME280;38381;53.688;10.776;2023-07-28T05:11:17;99919.31;;;16.57;95.82
52469;BME280;38381;53.688;10.776;2023-07-28T05:16:18;99920.00;;;16.62;96.11
52469;BME280;38381;53.688;10.776;2023-07-28T05:21:18;99914.56;;;16.68;95.92
52469;BME280;38381;53.688;10.776;2023-07-28T05:26:19;99922.34;;;16.72;96.38
52469;BME280;38381;53.688;10.776;2023-07-28T05:31:19;99925.47;;;16.83;95.61
52469;BME280;38381;53.688;10.776;2023-07-28T05:36:19;99933.84;;;16.94;95.59
52469;BME280;38381;53.688;10.776;2023-07-28T05:41:20;99935.47;;;16.98;95.16
52469;BME280;38381;53.688;10.776;2023-07-28T05:46:20;99946.44;;;17.09;95.00
52469;BME280;38381;53.688;10.776;2023-07-28T05:51:21;99952.00;;;17.00;94.72
52469;BME280;38381;53.688;10.776;2023-07-28T05:56:22;99954.31;;;17.08;94.51
52469;BME280;38381;53.688;10.776;2023-07-28T06:01:22;99956.63;;;17.19;94.67
52469;BME280;38381;53.688;10.776;2023-07-28T06:06:22;99960.13;;;17.18;94.05
52469;BME280;38381;53.688;10.776;2023-07-28T06:11:24;99968.22;;;17.37;94.40
52469;BME280;38381;53.688;10.776;2023-07-28T06:16:24;99978.22;;;17.50;94.41
52469;BME280;38381;53.688;10.776;2023-07-28T06:21:25;99987.09;;;17.46;93.23
52469;BME280;38381;53.688;10.776;2023-07-28T06:26:25;99981.06;;;17.44;93.68
52469;BME280;38381;53.688;10.776;2023-07-28T06:31:25;99988.41;;;17.60;93.31
52469;BME280;38381;53.688;10.776;2023-07-28T06:36:26;99977.72;;;17.66;93.53
52469;BME280;38381;53.688;10.776;2023-07-28T06:41:27;99983.16;;;17.60;93.50
52469;BME280;38381;53.688;10.776;2023-07-28T06:46:28;99986.91;;;17.53;94.07
52469;BME280;38381;53.688;10.776;2023-07-28T06:51:29;100002.41;;;17.59;93.12
52469;BME280;38381;53.688;10.776;2023-07-28T06:56:30;100000.97;;;17.75;92.76
52469;BME280;38381;53.688;10.776;2023-07-28T07:01:30;100002.28;;;18.12;91.92
52469;BME280;38381;53.688;10.776;2023-07-28T07:06:31;100002.91;;;18.88;87.84
52469;BME280;38381;53.688;10.776;2023-07-28T07:11:32;100005.78;;;19.46;84.92
52469;BME280;38381;53.688;10.776;2023-07-28T07:16:34;100015.69;;;19.40;84.59
52469;BME280;38381;53.688;10.776;2023-07-28T07:21:34;100026.41;;;19.35;84.24
52469;BME280;38381;53.688;10.776;2023-07-28T07:26:35;100035.44;;;19.07;85.86
52469;BME280;38381;53.688;10.776;2023-07-28T07:31:35;100030.84;;;19.13;85.00
52469;BME280;38381;53.688;10.776;2023-07-28T07:36:36;100042.88;;;19.40;85.45
52469;BME280;38381;53.688;10.776;2023-07-28T07:41:36;100050.09;;;19.56;86.35
52469;BME280;38381;53.688;10.776;2023-07-28T07:46:37;100053.88;;;19.70;82.43
52469;BME280;38381;53.688;10.776;2023-07-28T07:51:37;100059.56;;;19.60;82.10
52469;BME280;38381;53.688;10.776;2023-07-28T07:56:37;100062.44;;;19.54;81.09
52469;BME280;38381;53.688;10.776;2023-07-28T08:01:38;100080.63;;;19.38;82.51
52469;BME280;38381;53.688;10.776;2023-07-28T08:06:39;100087.22;;;19.48;83.28
52469;BME280;38381;53.688;10.776;2023-07-28T08:11:39;100097.94;;;19.43;82.54
52469;BME280;38381;53.688;10.776;2023-07-28T08:16:40;100105.47;;;19.30;81.94
52469;BME280;38381;53.688;10.776;2023-07-28T08:21:40;100114.09;;;19.34;82.23
52469;BME280;38381;53.688;10.776;2023-07-28T08:26:41;100121.75;;;19.18;82.07
52469;BME280;38381;53.688;10.776;2023-07-28T08:31:41;100118.97;;;19.21;83.25
52469;BME280;38381;53.688;10.776;2023-07-28T08:36:42;100124.88;;;19.28;82.76
52469;BME280;38381;53.688;10.776;2023-07-28T08:41:43;100120.91;;;19.18;82.33
52469;BME280;38381;53.688;10.776;2023-07-28T08:46:44;100120.41;;;19.30;83.09
52469;BME280;38381;53.688;10.776;2023-07-28T08:51:49;100133.78;;;19.46;82.10
52469;BME280;38381;53.688;10.776;2023-07-28T08:56:50;100133.81;;;19.66;83.23
52469;BME280;38381;53.688;10.776;2023-07-28T09:01:51;100130.28;;;19.89;82.34
52469;BME280;38381;53.688;10.776;2023-07-28T09:06:52;100131.59;;;20.00;80.08
52469;BME280;38381;53.688;10.776;2023-07-28T09:11:53;100135.06;;;20.21;79.80
52469;BME280;38381;53.688;10.776;2023-07-28T09:16:54;100137.47;;;20.46;78.90
52469;BME280;38381;53.688;10.776;2023-07-28T09:21:59;100135.69;;;20.46;78.95
52469;BME280;38381;53.688;10.776;2023-07-28T09:27:01;100148.94;;;20.45;76.83
52469;BME280;38381;53.688;10.776;2023-07-28T09:32:04;100150.59;;;20.27;75.26
52469;BME280;38381;53.688;10.776;2023-07-28T09:37:06;100153.78;;;20.54;74.21
52469;BME280;38381;53.688;10.776;2023-07-28T09:42:09;100143.94;;;20.59;75.44
52469;BME280;38381;53.688;10.776;2023-07-28T09:47:11;100141.41;;;20.56;75.90
52469;BME280;38381;53.688;10.776;2023-07-28T09:52:14;100145.94;;;20.53;76.52
52469;BME280;38381;53.688;10.776;2023-07-28T09:57:20;100144.47;;;20.67;76.26
52469;BME280;38381;53.688;10.776;2023-07-28T10:02:21;100146.59;;;20.78;72.97
52469;BME280;38381;53.688;10.776;2023-07-28T10:07:22;100156.88;;;20.84;72.76
52469;BME280;38381;53.688;10.776;2023-07-28T10:12:24;100170.38;;;20.77;71.99
52469;BME280;38381;53.688;10.776;2023-07-28T10:17:32;100165.50;;;21.07;71.64
52469;BME280;38381;53.688;10.776;2023-07-28T10:22:45;100167.00;;;21.13;71.03
52469;BME280;38381;53.688;10.776;2023-07-28T10:27:47;100162.63;;;21.12;71.68
52469;BME280;38381;53.688;10.776;2023-07-28T10:32:50;100172.38;;;21.09;71.32
52469;BME280;38381;53.688;10.776;2023-07-28T10:37:51;100166.53;;;21.22;71.56
52469;BME280;38381;53.688;10.776;2023-07-28T10:42:52;100167.75;;;20.96;72.87
52469;BME280;38381;53.688;10.776;2023-07-28T10:47:54;100166.75;;;21.36;71.81
52469;BME280;38381;53.688;10.776;2023-07-28T10:52:59;100161.19;;;21.42;72.09
52469;BME280;38381;53.688;10.776;2023-07-28T10:58:00;100162.75;;;21.46;71.22
52469;BME280;38381;53.688;10.776;2023-07-28T11:03:00;100168.34;;;21.77;70.69
52469;BME280;38381;53.688;10.776;2023-07-28T11:08:02;100170.19;;;21.75;72.18
52469;BME280;38381;53.688;10.776;2023-07-28T11:13:03;100163.44;;;21.86;69.12
52469;BME280;38381;53.688;10.776;2023-07-28T11:18:06;100168.91;;;22.01;67.63
52469;BME280;38381;53.688;10.776;2023-07-28T11:23:06;100171.06;;;21.93;67.06
52469;BME280;38381;53.688;10.776;2023-07-28T11:28:09;100172.91;;;22.08;69.01
52469;BME280;38381;53.688;10.776;2023-07-28T11:33:10;100172.41;;;22.36;68.92
52469;BME280;38381;53.688;10.776;2023-07-28T11:38:14;100171.69;;;22.50;67.80
52469;BME280;38381;53.688;10.776;2023-07-28T11:43:15;100180.91;;;22.59;66.16
52469;BME280;38381;53.688;10.776;2023-07-28T11:48:16;100187.66;;;22.64;64.57
52469;BME280;38381;53.688;10.776;2023-07-28T11:53:18;100183.53;;;22.59;64.33
52469;BME280;38381;53.688;10.776;2023-07-28T11:58:21;100191.66;;;22.72;62.51
52469;BME280;38381;53.688;10.776;2023-07-28T12:03:29;100205.22;;;22.65;64.23
52469;BME280;38381;53.688;10.776;2023-07-28T12:08:34;100208.38;;;22.72;65.88
52469;BME280;38381;53.688;10.776;2023-07-28T12:13:47;100213.72;;;22.55;66.68
52469;BME280;38381;53.688;10.776;2023-07-28T12:18:47;100221.72;;;22.53;64.48
52469;BME280;38381;53.688;10.776;2023-07-28T12:23:48;100214.72;;;22.17;65.39
52469;BME280;38381;53.688;10.776;2023-07-28T12:28:48;100221.59;;;22.02;66.18
52469;BME280;38381;53.688;10.776;2023-07-28T12:33:48;100226.72;;;22.42;66.54
52469;BME280;38381;53.688;10.776;2023-07-28T12:38:49;100231.59;;;22.49;66.87
52469;BME280;38381;53.688;10.776;2023-07-28T12:43:49;100234.66;;;22.42;66.76
52469;BME280;38381;53.688;10.776;2023-07-28T12:48:50;100246.53;;;22.50;67.50
52469;BME280;38381;53.688;10.776;2023-07-28T12:53:50;100253.50;;;22.52;67.09
52469;BME280;38381;53.688;10.776;2023-07-28T12:58:50;100259.97;;;22.46;66.87
52469;BME280;38381;53.688;10.776;2023-07-28T13:03:51;100260.19;;;22.41;67.54
52469;BME280;38381;53.688;10.776;2023-07-28T13:08:51;100269.13;;;22.39;68.16
52469;BME280;38381;53.688;10.776;2023-07-28T13:13:52;100261.53;;;22.50;68.05
52469;BME280;38381;53.688;10.776;2023-07-28T13:18:52;100257.88;;;22.53;66.93
52469;BME280;38381;53.688;10.776;2023-07-28T13:23:53;100259.25;;;22.60;65.60
52469;BME280;38381;53.688;10.776;2023-07-28T13:28:53;100271.34;;;22.12;65.63
52469;BME280;38381;53.688;10.776;2023-07-28T13:33:54;100275.34;;;22.55;64.83
52469;BME280;38381;53.688;10.776;2023-07-28T13:38:54;100277.84;;;22.58;66.18
52469;BME280;38381;53.688;10.776;2023-07-28T13:43:55;100277.53;;;22.64;65.92
52469;BME280;38381;53.688;10.776;2023-07-28T13:48:55;100274.78;;;22.66;66.25
52469;BME280;38381;53.688;10.776;2023-07-28T13:53:56;100274.41;;;22.39;67.55
52469;BME280;38381;53.688;10.776;2023-07-28T13:58:56;100280.84;;;22.33;68.09
52469;BME280;38381;53.688;10.776;2023-07-28T14:03:57;100276.03;;;22.41;67.89
52469;BME280;38381;53.688;10.776;2023-07-28T14:08:57;100286.06;;;22.35;66.64
52469;BME280;38381;53.688;10.776;2023-07-28T14:13:57;100288.59;;;22.19;67.00
52469;BME280;38381;53.688;10.776;2023-07-28T14:18:58;100296.63;;;22.35;66.77
52469;BME280;38381;53.688;10.776;2023-07-28T14:23:58;100296.50;;;22.38;66.16
52469;BME280;38381;53.688;10.776;2023-07-28T14:28:58;100298.19;;;22.39;67.57
52469;BME280;38381;53.688;10.776;2023-07-28T14:33:59;100289.81;;;22.30;67.62
52469;BME280;38381;53.688;10.776;2023-07-28T14:38:59;100294.47;;;22.25;67.02
52469;BME280;38381;53.688;10.776;2023-07-28T14:44:00;100295.94;;;22.31;68.83
52469;BME280;38381;53.688;10.776;2023-07-28T14:49:01;100289.81;;;22.30;69.04
52469;BME280;38381;53.688;10.776;2023-07-28T14:54:02;100299.50;;;22.47;68.80
52469;BME280;38381;53.688;10.776;2023-07-28T14:59:02;100303.88;;;22.48;68.26
52469;BME280;38381;53.688;10.776;2023-07-28T15:04:03;100305.50;;;22.51;66.16
52469;BME280;38381;53.688;10.776;2023-07-28T15:09:04;100300.69;;;22.42;65.73
52469;BME280;38381;53.688;10.776;2023-07-28T15:14:05;100306.16;;;21.83;67.39
52469;BME280;38381;53.688;10.776;2023-07-28T15:19:06;100309.53;;;22.23;66.63
52469;BME280;38381;53.688;10.776;2023-07-28T15:24:07;100296.97;;;22.46;65.91
52469;BME280;38381;53.688;10.776;2023-07-28T15:29:08;100294.63;;;22.40;67.19
52469;BME280;38381;53.688;10.776;2023-07-28T15:34:08;100290.97;;;22.60;66.37
52469;BME280;38381;53.688;10.776;2023-07-28T15:39:09;100283.50;;;22.68;66.63
52469;BME280;38381;53.688;10.776;2023-07-28T15:44:09;100283.72;;;22.63;66.90
52469;BME280;38381;53.688;10.776;2023-07-28T15:49:10;100289.03;;;22.81;67.16
52469;BME280;38381;53.688;10.776;2023-07-28T15:54:11;100284.66;;;22.80;68.40
52469;BME280;38381;53.688;10.776;2023-07-28T15:59:12;100288.59;;;22.88;68.00
52469;BME280;38381;53.688;10.776;2023-07-28T16:04:12;100293.72;;;23.09;66.10
52469;BME280;38381;53.688;10.776;2023-07-28T16:09:13;100295.44;;;23.10;67.01
52469;BME280;38381;53.688;10.776;2023-07-28T16:14:14;100297.31;;;22.90;66.36
52469;BME280;38381;53.688;10.776;2023-07-28T16:19:14;100300.88;;;23.07;65.50
52469;BME280;38381;53.688;10.776;2023-07-28T16:24:15;100295.78;;;23.04;65.34
52469;BME280;38381;53.688;10.776;2023-07-28T16:29:15;100300.81;;;23.08;66.34
52469;BME280;38381;53.688;10.776;2023-07-28T16:34:15;100298.72;;;22.98;66.62
52469;BME280;38381;53.688;10.776;2023-07-28T16:39:16;100304.25;;;22.93;66.53
52469;BME280;38381;53.688;10.776;2023-07-28T16:44:17;100299.63;;;22.97;67.28
52469;BME280;38381;53.688;10.776;2023-07-28T16:49:17;100299.88;;;22.92;67.31
52469;BME280;38381;53.688;10.776;2023-07-28T16:54:17;100296.13;;;22.96;65.98
52469;BME280;38381;53.688;10.776;2023-07-28T16:59:18;100291.97;;;23.09;65.06
52469;BME280;38381;53.688;10.776;2023-07-28T17:04:18;100297.75;;;22.99;66.28
52469;BME280;38381;53.688;10.776;2023-07-28T17:09:19;100303.31;;;23.12;67.18
52469;BME280;38381;53.688;10.776;2023-07-28T17:14:19;100293.06;;;23.21;65.66
52469;BME280;38381;53.688;10.776;2023-07-28T17:19:20;100285.91;;;23.07;65.39
52469;BME280;38381;53.688;10.776;2023-07-28T17:24:20;100291.34;;;23.04;65.43
52469;BME280;38381;53.688;10.776;2023-07-28T17:29:21;100297.47;;;22.87;65.87
52469;BME280;38381;53.688;10.776;2023-07-28T17:34:22;100295.88;;;23.01;65.82
52469;BME280;38381;53.688;10.776;2023-07-28T17:39:23;100297.34;;;22.73;66.45
52469;BME280;38381;53.688;10.776;2023-07-28T17:44:24;100303.41;;;22.75;67.45
52469;BME280;38381;53.688;10.776;2023-07-28T17:49:24;100311.34;;;22.75;67.94
52469;BME280;38381;53.688;10.776;2023-07-28T17:54:25;100309.47;;;22.77;68.25
52469;BME280;38381;53.688;10.776;2023-07-28T17:59:25;100318.41;;;22.75;68.40
52469;BME280;38381;53.688;10.776;2023-07-28T18:04:25;100322.38;;;22.66;68.87
52469;BME280;38381;53.688;10.776;2023-07-28T18:09:26;100323.69;;;22.57;68.67
52469;BME280;38381;53.688;10.776;2023-07-28T18:14:26;100326.88;;;22.46;68.31
52469;BME280;38381;53.688;10.776;2023-07-28T18:19:27;100329.47;;;22.48;68.89
52469;BME280;38381;53.688;10.776;2023-07-28T18:24:27;100336.59;;;22.46;68.87
52469;BME280;38381;53.688;10.776;2023-07-28T18:29:28;100336.44;;;22.32;68.82
52469;BME280;38381;53.688;10.776;2023-07-28T18:34:28;100341.91;;;22.27;68.63
52469;BME280;38381;53.688;10.776;2023-07-28T18:39:29;100351.81;;;22.23;68.28
52469;BME280;38381;53.688;10.776;2023-07-28T18:44:32;100354.53;;;22.03;69.24
52469;BME280;38381;53.688;10.776;2023-07-28T18:49:32;100354.88;;;21.95;69.26
52469;BME280;38381;53.688;10.776;2023-07-28T18:54:33;100362.38;;;21.85;69.35
52469;BME280;38381;53.688;10.776;2023-07-28T18:59:34;100357.44;;;21.78;69.92
52469;BME280;38381;53.688;10.776;2023-07-28T19:04:35;100362.09;;;21.73;70.39
52469;BME280;38381;53.688;10.776;2023-07-28T19:09:36;100364.22;;;21.64;70.37
52469;BME280;38381;53.688;10.776;2023-07-28T19:14:37;100370.19;;;21.49;71.01
52469;BME280;38381;53.688;10.776;2023-07-28T19:19:38;100376.84;;;21.37;71.07
52469;BME280;38381;53.688;10.776;2023-07-28T19:24:39;100391.56;;;21.22;71.45
52469;BME280;38381;53.688;10.776;2023-07-28T19:29:39;100394.47;;;21.16;71.10
52469;BME280;38381;53.688;10.776;2023-07-28T19:34:42;100394.94;;;21.05;71.45
52469;BME280;38381;53.688;10.776;2023-07-28T19:39:42;100395.66;;;20.88;72.10
52469;BME280;38381;53.688;10.776;2023-07-28T19:44:43;100398.75;;;20.78;72.72
52469;BME280;38381;53.688;10.776;2023-07-28T19:49:43;100394.00;;;20.65;73.60
52469;BME280;38381;53.688;10.776;2023-07-28T19:54:43;100399.50;;;20.37;74.87
52469;BME280;38381;53.688;10.776;2023-07-28T19:59:44;100393.91;;;20.23;75.78
52469;BME280;38381;53.688;10.776;2023-07-28T20:04:44;100397.78;;;20.14;76.55
52469;BME280;38381;53.688;10.776;2023-07-28T20:09:44;100396.00;;;19.91;77.74
52469;BME280;38381;53.688;10.776;2023-07-28T20:14:46;100397.97;;;19.86;77.52
52469;BME280;38381;53.688;10.776;2023-07-28T20:19:46;100406.47;;;19.69;78.60
52469;BME280;38381;53.688;10.776;2023-07-28T20:24:47;100400.16;;;19.49;79.55
52469;BME280;38381;53.688;10.776;2023-07-28T20:29:48;100392.47;;;19.20;80.70
52469;BME280;38381;53.688;10.776;2023-07-28T20:34:48;100397.59;;;19.23;79.94
52469;BME280;38381;53.688;10.776;2023-07-28T20:39:49;100405.69;;;19.17;80.33
52469;BME280;38381;53.688;10.776;2023-07-28T20:44:49;100409.34;;;19.13;80.51
52469;BME280;38381;53.688;10.776;2023-07-28T20:49:50;100408.75;;;19.04;81.04
52469;BME280;38381;53.688;10.776;2023-07-28T20:54:50;100400.00;;;18.79;82.62
52469;BME280;38381;53.688;10.776;2023-07-28T20:59:50;100398.97;;;18.83;81.93
52469;BME280;38381;53.688;10.776;2023-07-28T21:04:51;100398.97;;;18.83;82.24
52469;BME280;38381;53.688;10.776;2023-07-28T21:09:53;100392.13;;;18.79;82.59
52469;BME280;38381;53.688;10.776;2023-07-28T21:14:54;100389.13;;;18.61;82.80
52469;BME280;38381;53.688;10.776;2023-07-28T21:19:55;100393.78;;;18.53;82.95
52469;BME280;38381;53.688;10.776;2023-07-28T21:24:56;100398.63;;;18.39;83.09
52469;BME280;38381;53.688;10.776;2023-07-28T21:29:56;100391.03;;;18.29;83.37
52469;BME280;38381;53.688;10.776;2023-07-28T21:34:57;100397.16;;;18.30;83.47
52469;BME280;38381;53.688;10.776;2023-07-28T21:39:57;100395.59;;;18.23;83.72
52469;BME280;38381;53.688;10.776;2023-07-28T21:44:58;100398.00;;;18.30;83.61
52469;BME280;38381;53.688;10.776;2023-07-28T21:49:58;100405.22;;;18.24;84.26
52469;BME280;38381;53.688;10.776;2023-07-28T21:54:58;100412.13;;;18.26;84.15
52469;BME280;38381;53.688;10.776;2023-07-28T22:00:00;100411.25;;;17.98;86.41
52469;BME280;38381;53.688;10.776;2023-07-28T22:05:00;100406.31;;;17.87;86.90
52469;BME280;38381;53.688;10.776;2023-07-28T22:10:02;100405.38;;;17.89;87.29
52469;BME280;38381;53.688;10.776;2023-07-28T22:15:06;100406.09;;;17.95;86.16
52469;BME280;38381;53.688;10.776;2023-07-28T22:20:07;100419.34;;;17.90;85.97
52469;BME280;38381;53.688;10.776;2023-07-28T22:25:09;100423.75;;;17.88;87.11
52469;BME280;38381;53.688;10.776;2023-07-28T22:30:10;100422.06;;;17.87;86.55
52469;BME280;38381;53.688;10.776;2023-07-28T22:35:10;100413.34;;;17.86;86.06
52469;BME280;38381;53.688;10.776;2023-07-28T22:40:11;100410.72;;;17.86;86.28
52469;BME280;38381;53.688;10.776;2023-07-28T22:45:11;100406.34;;;17.85;87.16
52469;BME280;38381;53.688;10.776;2023-07-28T22:50:12;100413.34;;;17.86;86.78
52469;BME280;38381;53.688;10.776;2023-07-28T22:55:12;100410.06;;;17.78;87.01
52469;BME280;38381;53.688;10.776;2023-07-28T23:00:14;100398.78;;;17.75;86.65
52469;BME280;38381;53.688;10.776;2023-07-28T23:05:17;100397.97;;;17.73;86.69
52469;BME280;38381;53.688;10.776;2023-07-28T23:10:18;100391.88;;;17.72;86.79
52469;BME280;38381;53.688;10.776;2023-07-28T23:15:19;100389.66;;;17.57;88.15
52469;BME280;38381;53.688;10.776;2023-07-28T23:20:19;100389.22;;;17.41;90.12
52469;BME280;38381;53.688;10.776;2023-07-28T23:25:19;100402.00;;;17.53;89.25
52469;BME280;38381;53.688;10.776;2023-07-28T23:30:20;100393.25;;;17.54;89.68
52469;BME280;38381;53.688;10.776;2023-07-28T23:35:20;100393.66;;;17.39;90.76
52469;BME280;38381;53.688;10.776;2023-07-28T23:40:21;100403.13;;;17.44;90.63
52469;BME280;38381;53.688;10.776;2023-07-28T23:45:21;100405.69;;;17.15;93.44
52469;BME280;38381;53.688;10.776;2023-07-28T23:50:22;100404.63;;;17.20;93.37
52469;BME280;38381;53.688;10.776;2023-07-28T23:55:22;100412.72;;;17.13;95.25
